createdAt,value
2022-10-07T00:00:03.202Z,0
2022-10-07T00:15:02.576Z,0
2022-10-07T00:30:03.225Z,0
2022-10-07T00:45:02.462Z,0
2022-10-07T01:00:02.925Z,0
2022-10-07T01:15:02.380Z,0
2022-10-07T01:30:02.785Z,0
2022-10-07T01:45:03.257Z,0
2022-10-07T02:00:02.651Z,0
2022-10-07T02:15:03.269Z,0
2022-10-07T02:30:02.560Z,0
2022-10-07T02:45:03.167Z,0
2022-10-07T03:00:04.320Z,0
2022-10-07T03:15:02.892Z,0
2022-10-07T03:30:02.316Z,0
2022-10-07T03:45:02.755Z,0
2022-10-07T04:00:03.275Z,0
2022-10-07T04:15:02.617Z,0
2022-10-07T04:30:03.274Z,0
2022-10-07T04:45:02.493Z,0
2022-10-07T05:00:02.915Z,0
2022-10-07T05:15:02.356Z,0
2022-10-07T05:30:02.806Z,0
2022-10-07T05:45:03.293Z,0
2022-10-07T06:00:02.692Z,8
2022-10-07T06:15:03.298Z,17
2022-10-07T06:30:02.579Z,22
2022-10-07T06:45:03.048Z,42
2022-10-07T07:00:02.425Z,148
2022-10-07T07:15:02.882Z,145
2022-10-07T07:30:02.342Z,146
2022-10-07T07:45:02.769Z,161
2022-10-07T08:00:03.337Z,206
2022-10-07T08:15:02.639Z,258
2022-10-07T08:30:03.053Z,296
2022-10-07T08:45:02.518Z,326
2022-10-07T09:00:02.921Z,354
2022-10-07T09:15:02.392Z,376
2022-10-07T09:30:02.846Z,392
2022-10-07T09:45:02.327Z,394
2022-10-07T10:00:02.762Z,405
2022-10-07T10:15:03.322Z,453
2022-10-07T10:30:02.622Z,292
2022-10-07T10:45:03.090Z,321
2022-10-07T11:00:02.520Z,431
2022-10-07T11:15:02.973Z,393
2022-10-07T11:30:02.420Z,426
2022-10-07T11:45:02.862Z,460
2022-10-07T12:00:02.382Z,394
2022-10-07T12:15:02.766Z,466
2022-10-07T12:30:03.390Z,390
2022-10-07T12:45:02.639Z,392
2022-10-07T13:00:03.068Z,389
2022-10-07T13:15:02.500Z,301
2022-10-07T13:30:02.946Z,286
2022-10-07T13:45:02.398Z,288
2022-10-07T14:00:02.821Z,249
2022-10-07T14:15:03.371Z,235
2022-10-07T14:30:02.737Z,178
2022-10-07T14:45:03.370Z,193
2022-10-07T15:00:02.590Z,163
2022-10-07T15:15:03.078Z,97
2022-10-07T15:30:02.513Z,44
2022-10-07T15:45:02.907Z,85
2022-10-07T16:00:02.422Z,56
2022-10-07T16:15:02.826Z,29
2022-10-07T16:30:02.421Z,3
2022-10-07T16:45:02.725Z,0
2022-10-07T17:00:03.127Z,0
2022-10-07T17:15:02.571Z,0
2022-10-07T17:30:03.054Z,0
2022-10-07T17:45:02.457Z,0
2022-10-07T18:00:02.862Z,0
2022-10-07T18:15:02.443Z,0
2022-10-07T18:30:02.779Z,0
2022-10-07T18:45:03.443Z,0
2022-10-07T19:00:02.642Z,0
2022-10-07T19:15:03.122Z,0
2022-10-07T19:30:02.525Z,0
2022-10-07T19:45:02.986Z,0
2022-10-07T20:00:02.464Z,0
2022-10-07T20:15:02.878Z,0
2022-10-07T20:30:02.530Z,0
2022-10-07T20:45:02.757Z,0
2022-10-07T21:00:03.195Z,0
2022-10-07T21:15:02.627Z,0
2022-10-07T21:30:03.041Z,0
2022-10-07T21:45:02.507Z,0
2022-10-07T22:00:02.921Z,0
2022-10-07T22:15:02.476Z,0
2022-10-07T22:30:02.802Z,0
2022-10-07T22:45:03.460Z,0
2022-10-07T23:00:02.695Z,0
2022-10-07T23:15:03.126Z,0
2022-10-07T23:30:02.562Z,0
2022-10-07T23:45:02.969Z,0
